createdAt,value
2023-05-03T00:00:30.771Z,1031.21
2023-05-03T00:01:35.363Z,1031.23
2023-05-03T00:02:39.689Z,1031.26
2023-05-03T00:03:43.505Z,1031.24
2023-05-03T00:04:47.873Z,1031.23
2023-05-03T00:05:52.446Z,1031.25
2023-05-03T00:06:56.512Z,1031.22
2023-05-03T00:08:01.120Z,1031.25
2023-05-03T00:09:05.699Z,1031.26
2023-05-03T00:10:10.044Z,1031.24
2023-05-03T00:11:13.859Z,1031.21
2023-05-03T00:12:18.194Z,1031.16
2023-05-03T00:13:22.802Z,1031.11
2023-05-03T00:14:27.123Z,1031.11
2023-05-03T00:15:31.469Z,1031.09
2023-05-03T00:16:35.801Z,1031.08
2023-05-03T00:17:40.165Z,1031.10
2023-05-03T00:18:44.737Z,1031.13
2023-05-03T00:19:44.335Z,1031.14
2023-05-03T00:20:48.929Z,1031.13
2023-05-03T00:21:53.274Z,1031.13
2023-05-03T00:23:05.316Z,1031.15
2023-05-03T00:24:01.963Z,1031.12
2023-05-03T00:25:06.016Z,1031.15
2023-05-03T00:26:10.364Z,1031.15
2023-05-03T00:27:14.684Z,1031.10
2023-05-03T00:28:19.029Z,1031.12
2023-05-03T00:29:23.898Z,1031.12
2023-05-03T00:30:27.953Z,1031.15
2023-05-03T00:31:32.297Z,1031.13
2023-05-03T00:32:36.450Z,1031.14
2023-05-03T00:33:40.692Z,1031.15
2023-05-03T00:34:45.291Z,1031.06
2023-05-03T00:35:49.631Z,1031.05
2023-05-03T00:36:53.959Z,1031.13
2023-05-03T00:37:58.032Z,1031.16
2023-05-03T00:39:02.888Z,1031.14
2023-05-03T00:40:06.968Z,1031.16
2023-05-03T00:41:11.081Z,1031.12
2023-05-03T00:42:15.385Z,1031.17
2023-05-03T00:43:19.720Z,1031.14
2023-05-03T00:44:24.332Z,1031.16
2023-05-03T00:45:28.409Z,1031.17
2023-05-03T00:46:32.736Z,1031.16
2023-05-03T00:47:37.121Z,1031.15
2023-05-03T00:48:41.945Z,1031.14
2023-05-03T00:49:41.515Z,1031.13
2023-05-03T00:50:46.370Z,1031.16
2023-05-03T00:51:50.450Z,1031.15
2023-05-03T00:52:54.563Z,1031.16
2023-05-03T00:53:58.870Z,1031.13
2023-05-03T00:55:03.241Z,1031.16
2023-05-03T00:56:07.807Z,1031.13
2023-05-03T00:57:11.883Z,1031.16
2023-05-03T00:58:16.494Z,1031.16
2023-05-03T00:59:20.863Z,1031.16
2023-05-03T01:00:25.173Z,1031.13
2023-05-03T01:01:29.317Z,1031.14
2023-05-03T01:02:33.981Z,1031.13
2023-05-03T01:03:38.247Z,1031.16
2023-05-03T01:04:43.343Z,1031.19
2023-05-03T01:05:46.601Z,1031.18
2023-05-03T01:06:51.272Z,1031.15
2023-05-03T01:07:55.544Z,1031.17
2023-05-03T01:09:00.145Z,1031.13
2023-05-03T01:10:04.573Z,1031.17
2023-05-03T01:11:11.374Z,1031.20
2023-05-03T01:12:10.497Z,1031.19
2023-05-03T01:13:14.858Z,1031.22
2023-05-03T01:14:19.171Z,1031.26
2023-05-03T01:15:23.514Z,1031.30
2023-05-03T01:16:27.867Z,1031.27
2023-05-03T01:17:32.519Z,1031.26
2023-05-03T01:18:37.027Z,1031.24
2023-05-03T01:19:36.660Z,1031.20
2023-05-03T01:20:41.545Z,1031.19
2023-05-03T01:21:45.845Z,1031.17
2023-05-03T01:22:49.679Z,1031.15
2023-05-03T01:23:54.033Z,1031.17
2023-05-03T01:24:58.391Z,1031.22
2023-05-03T01:26:02.707Z,1031.27
2023-05-03T01:27:07.303Z,1031.26
2023-05-03T01:28:11.654Z,1031.19
2023-05-03T01:29:16.004Z,1031.22
2023-05-03T01:30:20.617Z,1031.19
2023-05-03T01:31:24.956Z,1031.22
2023-05-03T01:32:29.020Z,1031.22
2023-05-03T01:33:33.109Z,1031.30
2023-05-03T01:34:37.407Z,1031.25
2023-05-03T01:35:42.000Z,1031.28
2023-05-03T01:36:46.180Z,1031.26
2023-05-03T01:37:50.710Z,1031.20
2023-05-03T01:38:54.760Z,1031.23
2023-05-03T01:39:59.377Z,1031.27
2023-05-03T01:41:03.091Z,1031.23
2023-05-03T01:42:05.230Z,1031.25
2023-05-03T01:43:09.576Z,1031.26
2023-05-03T01:44:13.916Z,1031.24
2023-05-03T01:45:17.973Z,1031.27
2023-05-03T01:46:22.434Z,1031.30
2023-05-03T01:47:26.679Z,1031.28
2023-05-03T01:48:31.263Z,1031.31
2023-05-03T01:49:31.433Z,1031.32
2023-05-03T01:50:35.523Z,1031.28
2023-05-03T01:51:39.914Z,1031.37
2023-05-03T01:52:44.451Z,1031.36
2023-05-03T01:53:48.819Z,1031.33
2023-05-03T01:54:53.148Z,1031.34
2023-05-03T01:55:57.470Z,1031.37
2023-05-03T01:57:01.568Z,1031.38
2023-05-03T01:58:05.907Z,1031.35
2023-05-03T01:59:10.227Z,1031.36
2023-05-03T02:00:14.859Z,1031.34
2023-05-03T02:01:19.241Z,1031.37
2023-05-03T02:02:23.790Z,1031.37
2023-05-03T02:03:27.620Z,1031.40
2023-05-03T02:04:32.297Z,1031.39
2023-05-03T02:05:36.537Z,1031.34
2023-05-03T02:06:40.658Z,1031.37
2023-05-03T02:07:45.242Z,1031.38
2023-05-03T02:08:50.078Z,1031.34
2023-05-03T02:09:54.681Z,1031.38
2023-05-03T02:10:59.026Z,1031.34
2023-05-03T02:12:02.838Z,1031.36
2023-05-03T02:13:07.196Z,1031.36
2023-05-03T02:14:11.764Z,1031.37
2023-05-03T02:15:16.115Z,1031.35
2023-05-03T02:16:20.477Z,1031.34
2023-05-03T02:17:24.556Z,1031.38
2023-05-03T02:18:29.126Z,1031.37
2023-05-03T02:19:29.325Z,1031.39
2023-05-03T02:20:33.710Z,1031.39
2023-05-03T02:21:38.265Z,1031.35
2023-05-03T02:22:42.614Z,1031.43
2023-05-03T02:23:46.681Z,1031.40
2023-05-03T02:24:51.033Z,1031.39
2023-05-03T02:25:55.102Z,1031.45
2023-05-03T02:26:59.441Z,1031.49
2023-05-03T02:28:03.774Z,1031.48
2023-05-03T02:29:08.109Z,1031.38
2023-05-03T02:30:12.741Z,1031.41
2023-05-03T02:31:17.363Z,1031.45
2023-05-03T02:32:21.634Z,1031.43
2023-05-03T02:33:25.735Z,1031.48
2023-05-03T02:34:30.090Z,1031.48
2023-05-03T02:35:34.424Z,1031.48
2023-05-03T02:36:38.563Z,1031.51
2023-05-03T02:37:42.837Z,1031.49
2023-05-03T02:38:47.442Z,1031.48
2023-05-03T02:39:52.036Z,1031.51
2023-05-03T02:40:56.134Z,1031.49
2023-05-03T02:42:00.757Z,1031.52
2023-05-03T02:43:04.816Z,1031.53
2023-05-03T02:44:09.147Z,1031.53
2023-05-03T02:45:13.497Z,1031.53
2023-05-03T02:46:17.588Z,1031.54
2023-05-03T02:47:22.170Z,1031.52
2023-05-03T02:48:26.496Z,1031.50
2023-05-03T02:49:26.639Z,1031.50
2023-05-03T02:50:30.980Z,1031.55
2023-05-03T02:51:35.570Z,1031.60
2023-05-03T02:52:39.941Z,1031.59
2023-05-03T02:53:43.992Z,1031.61
2023-05-03T02:54:48.065Z,1031.64
2023-05-03T02:55:52.409Z,1031.64
2023-05-03T02:56:57.009Z,1031.70
2023-05-03T02:58:01.119Z,1031.64
2023-05-03T02:59:03.064Z,1031.67
2023-05-03T03:00:10.397Z,1031.69
2023-05-03T03:01:14.841Z,1031.61
2023-05-03T03:02:19.069Z,1031.65
2023-05-03T03:03:23.445Z,1031.62
2023-05-03T03:04:27.492Z,1031.64
2023-05-03T03:05:32.075Z,1031.64
2023-05-03T03:06:36.468Z,1031.68
2023-05-03T03:07:40.504Z,1031.67
2023-05-03T03:08:45.123Z,1031.68
2023-05-03T03:09:49.688Z,1031.71
2023-05-03T03:10:53.857Z,1031.70
2023-05-03T03:11:58.181Z,1031.71
2023-05-03T03:13:02.530Z,1031.64
2023-05-03T03:14:06.877Z,1031.66
2023-05-03T03:15:10.954Z,1031.64
2023-05-03T03:16:15.405Z,1031.67
2023-05-03T03:17:19.894Z,1031.63
2023-05-03T03:18:24.211Z,1031.66
2023-05-03T03:19:24.359Z,1031.68
2023-05-03T03:20:28.689Z,1031.70
2023-05-03T03:21:33.278Z,1031.72
2023-05-03T03:22:37.109Z,1031.68
2023-05-03T03:23:41.697Z,1031.72
2023-05-03T03:24:46.091Z,1031.73
2023-05-03T03:25:50.135Z,1031.73
2023-05-03T03:26:54.742Z,1031.74
2023-05-03T03:27:59.085Z,1031.72
2023-05-03T03:29:03.158Z,1031.78
2023-05-03T03:30:08.079Z,1031.78
2023-05-03T03:31:12.121Z,1031.81
2023-05-03T03:32:16.201Z,1031.81
2023-05-03T03:33:23.651Z,1031.81
2023-05-03T03:34:24.873Z,1031.76
2023-05-03T03:35:29.215Z,1031.79
2023-05-03T03:36:33.821Z,1031.79
2023-05-03T03:37:37.880Z,1031.82
2023-05-03T03:38:42.478Z,1031.86
2023-05-03T03:39:47.078Z,1031.82
2023-05-03T03:40:51.210Z,1031.92
2023-05-03T03:41:55.494Z,1031.88
2023-05-03T03:42:59.587Z,1031.91
2023-05-03T03:44:04.188Z,1031.92
2023-05-03T03:45:08.533Z,1031.91
2023-05-03T03:46:12.883Z,1031.91
2023-05-03T03:47:16.991Z,1031.89
2023-05-03T03:48:21.796Z,1031.94
2023-05-03T03:49:22.251Z,1031.93
2023-05-03T03:50:26.593Z,1031.92
2023-05-03T03:51:31.169Z,1031.94
2023-05-03T03:52:35.268Z,1031.89
2023-05-03T03:53:39.609Z,1031.87
2023-05-03T03:54:43.960Z,1031.86
2023-05-03T03:55:48.276Z,1031.90
2023-05-03T03:56:52.666Z,1031.90
2023-05-03T03:57:56.712Z,1031.87
2023-05-03T03:59:01.317Z,1031.89
2023-05-03T04:00:06.064Z,1031.87
2023-05-03T04:01:09.981Z,1031.86
2023-05-03T04:02:14.390Z,1031.92
2023-05-03T04:03:18.467Z,1031.97
2023-05-03T04:04:22.800Z,1031.94
2023-05-03T04:05:27.099Z,1031.92
2023-05-03T04:06:31.437Z,1031.93
2023-05-03T04:07:35.768Z,1031.89
2023-05-03T04:08:40.358Z,1031.91
2023-05-03T04:09:44.444Z,1031.90
2023-05-03T04:10:49.053Z,1031.88
2023-05-03T04:11:53.378Z,1031.89
2023-05-03T04:12:57.501Z,1031.89
2023-05-03T04:14:01.821Z,1031.86
2023-05-03T04:15:06.147Z,1031.90
2023-05-03T04:16:10.741Z,1031.88
2023-05-03T04:17:15.152Z,1031.93
2023-05-03T04:18:19.680Z,1031.93
2023-05-03T04:19:19.846Z,1031.91
2023-05-03T04:20:23.905Z,1031.94
2023-05-03T04:21:28.259Z,1031.93
2023-05-03T04:22:32.589Z,1031.93
2023-05-03T04:23:36.923Z,1031.96
2023-05-03T04:24:49.140Z,1031.96
2023-05-03T04:25:45.585Z,1031.99
2023-05-03T04:26:49.932Z,1032.01
2023-05-03T04:27:54.277Z,1031.91
2023-05-03T04:28:58.631Z,1032.00
2023-05-03T04:30:03.650Z,1031.98
2023-05-03T04:31:07.308Z,1032.02
2023-05-03T04:32:11.369Z,1032.04
2023-05-03T04:33:15.714Z,1032.00
2023-05-03T04:34:20.313Z,1032.04
2023-05-03T04:35:24.383Z,1032.03
2023-05-03T04:36:28.739Z,1032.04
2023-05-03T04:37:33.323Z,1032.07
2023-05-03T04:38:37.677Z,1032.05
2023-05-03T04:39:42.015Z,1032.01
2023-05-03T04:40:46.090Z,1032.09
2023-05-03T04:41:50.684Z,1032.11
2023-05-03T04:42:54.767Z,1032.09
2023-05-03T04:43:59.358Z,1032.11
2023-05-03T04:45:03.451Z,1032.13
2023-05-03T04:46:08.088Z,1032.16
2023-05-03T04:47:12.623Z,1032.14
2023-05-03T04:48:16.971Z,1032.14
2023-05-03T04:49:22.061Z,1032.16
2023-05-03T04:50:26.137Z,1032.11
2023-05-03T04:51:30.472Z,1032.16
2023-05-03T04:52:34.835Z,1032.20
2023-05-03T04:53:39.400Z,1032.15
2023-05-03T04:54:43.759Z,1032.19
2023-05-03T04:58:39.701Z,1032.17
2023-05-03T04:59:44.836Z,1032.18
2023-05-03T05:00:49.582Z,1032.24
2023-05-03T05:01:53.820Z,1032.21
2023-05-03T05:02:58.220Z,1032.27
2023-05-03T05:04:02.441Z,1032.29
2023-05-03T05:05:06.501Z,1032.25
2023-05-03T05:06:10.851Z,1032.31
2023-05-03T05:07:15.440Z,1032.27
2023-05-03T05:08:19.525Z,1032.27
2023-05-03T05:09:24.118Z,1032.28
2023-05-03T05:10:28.711Z,1032.33
2023-05-03T05:11:33.025Z,1032.32
2023-05-03T05:12:36.849Z,1032.32
2023-05-03T05:13:41.189Z,1032.27
2023-05-03T05:14:45.790Z,1032.32
2023-05-03T05:15:49.852Z,1032.22
2023-05-03T05:16:54.528Z,1032.25
2023-05-03T05:17:58.942Z,1032.26
2023-05-03T05:19:02.853Z,1032.26
2023-05-03T05:20:07.476Z,1032.38
2023-05-03T05:21:11.522Z,1032.39
2023-05-03T05:22:15.852Z,1032.40
2023-05-03T05:23:20.200Z,1032.41
2023-05-03T05:24:24.786Z,1032.38
2023-05-03T05:25:29.105Z,1032.44
2023-05-03T05:26:33.461Z,1032.44
2023-05-03T05:27:37.589Z,1032.42
2023-05-03T05:28:37.673Z,1032.43
2023-05-03T05:29:41.996Z,1032.42
2023-05-03T05:30:46.820Z,1032.45
2023-05-03T05:31:50.920Z,1032.46
2023-05-03T05:32:55.207Z,1032.47
2023-05-03T05:33:59.337Z,1032.46
2023-05-03T05:35:03.908Z,1032.49
2023-05-03T05:36:08.250Z,1032.51
2023-05-03T05:37:12.622Z,1032.52
2023-05-03T05:38:16.919Z,1032.50
2023-05-03T05:39:20.985Z,1032.47
2023-05-03T05:40:25.838Z,1032.52
2023-05-03T05:41:29.908Z,1032.49
2023-05-03T05:42:33.997Z,1032.52
2023-05-03T05:43:38.328Z,1032.54
2023-05-03T05:44:42.670Z,1032.59
2023-05-03T05:45:46.989Z,1032.60
2023-05-03T05:46:51.365Z,1032.62
2023-05-03T05:47:55.719Z,1032.61
2023-05-03T05:49:00.363Z,1032.63
2023-05-03T05:50:15.055Z,1032.62
2023-05-03T05:52:14.170Z,1032.51
2023-05-03T05:53:13.026Z,1032.51
2023-05-03T05:54:17.544Z,1032.50
2023-05-03T05:55:22.541Z,1032.49
2023-05-03T05:56:26.381Z,1032.51
2023-05-03T05:57:30.422Z,1032.51
2023-05-03T05:58:34.776Z,1032.52
2023-05-03T05:59:39.139Z,1032.53
2023-05-03T06:00:43.779Z,1032.55
2023-05-03T06:01:48.138Z,1032.53
2023-05-03T06:02:52.316Z,1032.51
2023-05-03T06:03:57.048Z,1032.55
2023-05-03T06:05:01.525Z,1032.60
2023-05-03T06:06:05.263Z,1032.53
2023-05-03T06:07:09.807Z,1032.59
2023-05-03T06:08:14.154Z,1032.61
2023-05-03T06:09:24.829Z,1032.64
2023-05-03T06:10:22.564Z,1032.62
2023-05-03T06:11:27.146Z,1032.65
2023-05-03T06:12:31.523Z,1032.65
2023-05-03T06:13:35.865Z,1032.61
2023-05-03T06:14:46.259Z,1032.58
2023-05-03T06:15:44.269Z,1032.60
2023-05-03T06:16:48.920Z,1032.59
2023-05-03T06:17:53.258Z,1032.60
2023-05-03T06:18:57.552Z,1032.59
2023-05-03T06:20:01.832Z,1032.61
2023-05-03T06:21:06.269Z,1032.62
2023-05-03T06:22:06.082Z,1032.61
2023-05-03T06:23:16.909Z,1032.60
2023-05-03T06:24:15.010Z,1032.58
2023-05-03T06:25:19.357Z,1032.59
2023-05-03T06:26:23.682Z,1032.60
2023-05-03T06:27:28.028Z,1032.60
2023-05-03T06:28:32.378Z,1032.61
2023-05-03T06:29:36.467Z,1032.59
2023-05-03T06:30:40.845Z,1032.60
2023-05-03T06:31:45.371Z,1032.63
2023-05-03T06:32:49.824Z,1032.56
2023-05-03T06:33:54.109Z,1032.56
2023-05-03T06:34:58.439Z,1032.56
2023-05-03T06:36:02.519Z,1032.55
2023-05-03T06:37:06.900Z,1032.60
2023-05-03T06:38:11.204Z,1032.56
2023-05-03T06:39:15.799Z,1032.58
2023-05-03T06:40:20.142Z,1032.60
2023-05-03T06:41:24.203Z,1032.61
2023-05-03T06:42:28.806Z,1032.59
2023-05-03T06:43:33.146Z,1032.57
2023-05-03T06:44:37.495Z,1032.58
2023-05-03T06:45:41.562Z,1032.60
2023-05-03T06:46:46.221Z,1032.57
2023-05-03T06:47:50.560Z,1032.53
2023-05-03T06:48:54.613Z,1032.54
2023-05-03T06:49:59.224Z,1032.56
2023-05-03T06:51:03.537Z,1032.56
2023-05-03T06:52:03.420Z,1032.53
2023-05-03T06:53:08.121Z,1032.54
2023-05-03T06:54:12.599Z,1032.57
2023-05-03T06:55:16.958Z,1032.56
2023-05-03T06:56:21.016Z,1032.53
2023-05-03T06:57:26.465Z,1032.53
2023-05-03T06:58:29.425Z,1032.54
2023-05-03T06:59:33.783Z,1032.49
2023-05-03T07:00:38.354Z,1032.51
2023-05-03T07:01:42.782Z,1032.47
2023-05-03T07:02:47.366Z,1032.45
2023-05-03T07:03:51.740Z,1032.52
2023-05-03T07:04:55.437Z,1032.52
2023-05-03T07:05:59.774Z,1032.54
2023-05-03T07:07:04.500Z,1032.53
2023-05-03T07:08:08.472Z,1032.54
2023-05-03T07:09:12.858Z,1032.55
2023-05-03T07:10:17.434Z,1032.52
2023-05-03T07:11:21.448Z,1032.51
2023-05-03T07:12:26.047Z,1032.59
2023-05-03T07:13:30.617Z,1032.55
2023-05-03T07:14:34.722Z,1032.53
2023-05-03T07:15:39.034Z,1032.55
2023-05-03T07:16:43.164Z,1032.55
2023-05-03T07:17:47.451Z,1032.54
2023-05-03T07:18:51.791Z,1032.52
2023-05-03T07:19:56.105Z,1032.53
2023-05-03T07:21:00.457Z,1032.47
2023-05-03T07:22:00.836Z,1032.48
2023-05-03T07:23:05.139Z,1032.44
2023-05-03T07:24:09.741Z,1032.42
2023-05-03T07:25:13.875Z,1032.44
2023-05-03T07:26:18.201Z,1032.47
2023-05-03T07:27:22.479Z,1032.41
2023-05-03T07:28:26.571Z,1032.52
2023-05-03T07:29:30.916Z,1032.54
2023-05-03T07:30:35.263Z,1032.49
2023-05-03T07:31:39.627Z,1032.44
2023-05-03T07:32:44.575Z,1032.48
2023-05-03T07:33:48.986Z,1032.44
2023-05-03T07:34:52.909Z,1032.48
2023-05-03T07:35:56.986Z,1032.53
2023-05-03T07:37:01.332Z,1032.44
2023-05-03T07:38:05.670Z,1032.46
2023-05-03T07:39:10.287Z,1032.43
2023-05-03T07:40:14.643Z,1032.43
2023-05-03T07:41:18.998Z,1032.43
2023-05-03T07:42:23.286Z,1032.38
2023-05-03T07:43:27.654Z,1032.40
2023-05-03T07:44:30.928Z,1032.38
2023-05-03T07:45:36.067Z,1032.36
2023-05-03T07:46:40.663Z,1032.38
2023-05-03T07:47:45.030Z,1032.35
2023-05-03T07:48:49.083Z,1032.35
2023-05-03T07:49:53.690Z,1032.42
2023-05-03T07:50:58.014Z,1032.41
2023-05-03T07:51:58.262Z,1032.43
2023-05-03T07:53:02.615Z,1032.39
2023-05-03T07:54:07.185Z,1032.41
2023-05-03T07:55:11.030Z,1032.42
2023-05-03T07:56:15.663Z,1032.39
2023-05-03T07:57:20.113Z,1032.40
2023-05-03T07:58:38.858Z,1032.37
2023-05-03T07:59:28.390Z,1032.38
2023-05-03T08:00:32.724Z,1032.37
2023-05-03T08:01:37.054Z,1032.38
2023-05-03T08:02:41.632Z,1032.40
2023-05-03T08:03:46.181Z,1032.41
2023-05-03T08:04:50.404Z,1032.39
2023-05-03T08:05:54.650Z,1032.38
2023-05-03T08:06:58.991Z,1032.40
2023-05-03T08:08:03.073Z,1032.37
2023-05-03T08:09:07.710Z,1032.36
2023-05-03T08:10:11.765Z,1032.40
2023-05-03T08:11:16.361Z,1032.39
2023-05-03T08:12:20.702Z,1032.40
2023-05-03T08:13:25.155Z,1032.43
2023-05-03T08:14:29.115Z,1032.39
2023-05-03T08:15:33.756Z,1032.37
2023-05-03T08:16:37.810Z,1032.41
2023-05-03T08:17:44.951Z,1032.34
2023-05-03T08:18:44.332Z,1032.35
2023-05-03T08:22:32.853Z,1032.28
2023-05-03T08:23:37.179Z,1032.28
2023-05-03T08:24:41.786Z,1032.31
2023-05-03T08:25:46.118Z,1032.26
2023-05-03T08:26:50.767Z,1032.29
2023-05-03T08:27:55.061Z,1032.26
2023-05-03T08:28:59.176Z,1032.21
2023-05-03T08:30:03.827Z,1032.20
2023-05-03T08:31:07.618Z,1032.20
2023-05-03T08:32:12.191Z,1032.19
2023-05-03T08:33:16.548Z,1032.17
2023-05-03T08:34:20.609Z,1032.08
2023-05-03T08:35:25.471Z,1032.15
2023-05-03T08:36:29.558Z,1032.18
2023-05-03T08:37:33.880Z,1032.13
2023-05-03T08:38:37.996Z,1032.12
2023-05-03T08:39:42.307Z,1032.18
2023-05-03T08:40:46.655Z,1032.20
2023-05-03T08:41:51.276Z,1032.16
2023-05-03T08:42:55.622Z,1032.15
2023-05-03T08:43:59.995Z,1032.15
2023-05-03T08:45:04.425Z,1032.10
2023-05-03T08:46:08.696Z,1032.13
2023-05-03T08:47:12.999Z,1032.13
2023-05-03T08:48:17.107Z,1032.10
2023-05-03T08:49:21.470Z,1032.12
2023-05-03T08:50:25.765Z,1032.10
2023-05-03T08:51:29.879Z,1032.07
2023-05-03T08:52:30.487Z,1032.06
2023-05-03T08:53:34.578Z,1032.01
2023-05-03T08:54:39.157Z,1032.04
2023-05-03T08:55:43.525Z,1032.02
2023-05-03T08:56:47.861Z,1031.92
2023-05-03T08:57:52.203Z,1031.89
2023-05-03T08:58:56.270Z,1031.94
2023-05-03T09:00:01.068Z,1031.94
2023-05-03T09:01:04.984Z,1031.93
2023-05-03T09:02:09.367Z,1031.86
2023-05-03T09:03:13.721Z,1031.91
2023-05-03T09:04:18.469Z,1031.90
2023-05-03T09:05:22.791Z,1031.92
2023-05-03T09:06:27.208Z,1031.94
2023-05-03T09:07:27.705Z,1031.91
2023-05-03T09:08:34.802Z,1031.91
2023-05-03T09:09:39.381Z,1031.90
2023-05-03T09:10:43.519Z,1031.84
2023-05-03T09:11:47.854Z,1031.83
2023-05-03T09:12:52.194Z,1031.81
2023-05-03T09:13:56.524Z,1031.83
2023-05-03T09:15:01.421Z,1031.78
2023-05-03T09:16:05.257Z,1031.87
2023-05-03T09:17:09.864Z,1031.85
2023-05-03T09:18:14.146Z,1031.90
2023-05-03T09:19:18.495Z,1031.90
2023-05-03T09:20:22.968Z,1031.89
2023-05-03T09:21:27.138Z,1031.93
2023-05-03T09:22:27.275Z,1031.97
2023-05-03T09:23:32.038Z,1031.96
2023-05-03T09:24:35.943Z,1031.98
2023-05-03T09:25:40.022Z,1032.03
2023-05-03T09:26:44.861Z,1032.03
2023-05-03T09:27:48.685Z,1031.97
2023-05-03T09:28:53.291Z,1031.97
2023-05-03T09:29:57.640Z,1032.02
2023-05-03T09:31:01.973Z,1032.03
2023-05-03T09:32:06.242Z,1032.01
2023-05-03T09:33:10.619Z,1031.97
2023-05-03T09:34:14.998Z,1031.99
2023-05-03T09:35:19.586Z,1031.98
2023-05-03T09:36:23.696Z,1032.05
2023-05-03T09:37:28.005Z,1031.94
2023-05-03T09:38:32.093Z,1031.96
2023-05-03T09:39:36.700Z,1032.02
2023-05-03T09:40:41.063Z,1031.98
2023-05-03T09:41:45.130Z,1031.98
2023-05-03T09:42:49.758Z,1031.98
2023-05-03T09:43:53.838Z,1031.94
2023-05-03T09:44:58.437Z,1031.91
2023-05-03T09:46:02.552Z,1031.93
2023-05-03T09:47:06.926Z,1031.91
2023-05-03T09:48:11.281Z,1031.87
2023-05-03T09:49:17.494Z,1031.89
2023-05-03T09:50:16.997Z,1031.87
2023-05-03T09:51:21.092Z,1031.86
2023-05-03T09:52:21.209Z,1031.86
2023-05-03T09:53:25.812Z,1031.81
2023-05-03T09:54:30.160Z,1031.78
2023-05-03T09:55:34.482Z,1031.72
2023-05-03T09:56:38.558Z,1031.69
2023-05-03T09:57:43.435Z,1031.71
2023-05-03T09:58:47.496Z,1031.71
2023-05-03T09:59:51.598Z,1031.74
2023-05-03T10:00:56.257Z,1031.70
2023-05-03T10:02:00.579Z,1031.72
2023-05-03T10:03:04.668Z,1031.76
2023-05-03T10:04:09.276Z,1031.74
2023-05-03T10:05:13.344Z,1031.72
2023-05-03T10:06:18.192Z,1031.70
2023-05-03T10:07:22.499Z,1031.67
2023-05-03T10:08:26.358Z,1031.72
2023-05-03T10:09:30.735Z,1031.68
2023-05-03T10:10:35.326Z,1031.63
2023-05-03T10:11:39.662Z,1031.58
2023-05-03T10:12:44.010Z,1031.49
2023-05-03T10:13:48.077Z,1031.55
2023-05-03T10:14:52.695Z,1031.54
2023-05-03T10:15:57.328Z,1031.48
2023-05-03T10:17:01.674Z,1031.51
2023-05-03T10:18:05.750Z,1031.48
2023-05-03T10:19:11.946Z,1031.49
2023-05-03T10:20:14.388Z,1031.52
2023-05-03T10:21:18.499Z,1031.51
2023-05-03T10:22:18.845Z,1031.44
2023-05-03T10:23:23.181Z,1031.48
2023-05-03T10:24:27.504Z,1031.39
2023-05-03T10:25:31.837Z,1031.42
2023-05-03T10:26:35.906Z,1031.49
2023-05-03T10:27:40.493Z,1031.43
2023-05-03T10:28:44.579Z,1031.48
2023-05-03T10:29:49.480Z,1031.46
2023-05-03T10:30:53.536Z,1031.41
2023-05-03T10:31:57.669Z,1031.33
2023-05-03T10:33:02.220Z,1031.42
2023-05-03T10:34:06.499Z,1031.40
2023-05-03T10:35:10.670Z,1031.46
2023-05-03T10:36:15.440Z,1031.40
2023-05-03T10:37:19.838Z,1031.41
2023-05-03T10:38:23.932Z,1031.40
2023-05-03T10:39:28.014Z,1031.36
2023-05-03T10:40:32.628Z,1031.37
2023-05-03T10:41:36.950Z,1031.40
2023-05-03T10:42:41.040Z,1031.39
2023-05-03T10:43:45.644Z,1031.38
2023-05-03T10:44:49.744Z,1031.40
2023-05-03T10:45:54.586Z,1031.41
2023-05-03T10:46:58.396Z,1031.35
2023-05-03T10:48:03.050Z,1031.42
2023-05-03T10:49:07.078Z,1031.40
2023-05-03T10:50:11.430Z,1031.36
2023-05-03T10:51:15.758Z,1031.43
2023-05-03T10:52:16.218Z,1031.36
2023-05-03T10:53:20.571Z,1031.38
2023-05-03T10:54:24.892Z,1031.41
2023-05-03T10:55:29.234Z,1031.40
2023-05-03T10:56:33.558Z,1031.35
2023-05-03T10:57:39.558Z,1031.34
2023-05-03T10:58:42.239Z,1031.34
2023-05-03T10:59:46.304Z,1031.31
2023-05-03T11:00:50.892Z,1031.31
2023-05-03T11:01:55.126Z,1031.29
2023-05-03T11:02:59.412Z,1031.24
2023-05-03T11:04:03.878Z,1031.25
2023-05-03T11:05:08.537Z,1031.19
2023-05-03T11:06:12.911Z,1031.17
2023-05-03T11:07:17.003Z,1031.16
2023-05-03T11:08:21.067Z,1031.18
2023-05-03T11:09:25.730Z,1031.14
2023-05-03T11:10:29.992Z,1031.14
2023-05-03T11:11:34.085Z,1031.18
2023-05-03T11:12:38.660Z,1031.15
2023-05-03T11:13:42.813Z,1031.19
2023-05-03T11:14:47.346Z,1031.23
2023-05-03T11:15:51.679Z,1031.20
2023-05-03T11:16:56.184Z,1031.18
2023-05-03T11:18:00.208Z,1031.21
2023-05-03T11:19:04.719Z,1031.20
2023-05-03T11:20:09.042Z,1031.12
2023-05-03T11:21:13.149Z,1031.12
2023-05-03T11:22:13.606Z,1031.10
2023-05-03T11:23:17.929Z,1031.13
2023-05-03T11:24:22.000Z,1031.15
2023-05-03T11:25:26.634Z,1031.08
2023-05-03T11:26:31.183Z,1031.17
2023-05-03T11:27:35.524Z,1031.08
2023-05-03T11:28:39.626Z,1031.06
2023-05-03T11:29:43.945Z,1031.06
2023-05-03T11:30:48.018Z,1031.08
2023-05-03T11:31:52.432Z,1031.09
2023-05-03T11:32:56.783Z,1031.12
2023-05-03T11:34:01.299Z,1031.08
2023-05-03T11:35:06.142Z,1031.10
2023-05-03T11:36:10.079Z,1031.07
2023-05-03T11:37:14.062Z,1031.11
2023-05-03T11:38:18.665Z,1031.06
2023-05-03T11:39:23.021Z,1031.05
2023-05-03T11:40:27.112Z,1031.03
2023-05-03T11:41:31.764Z,1030.99
2023-05-03T11:42:36.076Z,1030.98
2023-05-03T11:43:40.162Z,1030.98
2023-05-03T11:44:45.047Z,1030.98
2023-05-03T11:45:49.414Z,1030.97
2023-05-03T11:46:53.319Z,1030.95
2023-05-03T11:47:57.890Z,1031.02
2023-05-03T11:49:01.910Z,1031.01
2023-05-03T11:50:06.256Z,1030.99
2023-05-03T11:51:10.849Z,1031.02
2023-05-03T11:52:11.146Z,1030.99
2023-05-03T11:53:15.527Z,1030.94
2023-05-03T11:54:26.075Z,1030.91
2023-05-03T11:55:24.250Z,1030.93
2023-05-03T11:56:28.591Z,1030.84
2023-05-03T11:57:33.068Z,1030.93
2023-05-03T11:58:37.037Z,1030.89
2023-05-03T11:59:41.403Z,1030.88
2023-05-03T12:00:45.769Z,1030.89
2023-05-03T12:01:50.428Z,1030.88
2023-05-03T12:02:54.648Z,1030.84
2023-05-03T12:03:59.359Z,1030.83
2023-05-03T12:05:04.074Z,1030.80
2023-05-03T12:06:08.442Z,1030.79
2023-05-03T12:07:13.454Z,1030.81
2023-05-03T12:08:16.934Z,1030.79
2023-05-03T12:09:22.193Z,1030.82
2023-05-03T12:10:26.896Z,1030.84
2023-05-03T12:11:32.188Z,1030.79
2023-05-03T12:12:36.084Z,1030.80
2023-05-03T12:13:38.585Z,1030.77
2023-05-03T12:14:39.460Z,1030.75
2023-05-03T12:15:43.938Z,1030.78
2023-05-03T12:16:50.296Z,1030.76
2023-05-03T12:17:54.877Z,1030.74
2023-05-03T12:18:57.087Z,1030.75
2023-05-03T12:20:33.110Z,1030.76
2023-05-03T12:21:31.105Z,1030.76
2023-05-03T12:22:23.824Z,1030.77
2023-05-03T12:23:10.763Z,1030.73
2023-05-03T12:24:15.081Z,1030.74
2023-05-03T12:25:20.444Z,1030.67
2023-05-03T12:26:22.990Z,1030.65
2023-05-03T12:27:28.234Z,1030.66
2023-05-03T12:28:31.633Z,1030.59
2023-05-03T12:29:36.148Z,1030.61
2023-05-03T12:30:40.780Z,1030.57
2023-05-03T12:31:44.793Z,1030.51
2023-05-03T12:32:50.270Z,1030.50
2023-05-03T12:34:57.550Z,1030.54
2023-05-03T12:36:04.243Z,1030.53
2023-05-03T12:37:06.710Z,1030.49
2023-05-03T12:38:11.018Z,1030.52
2023-05-03T12:40:33.407Z,1030.55
2023-05-03T12:41:51.969Z,1030.58
2023-05-03T12:42:28.828Z,1030.55
2023-05-03T12:43:32.130Z,1030.51
2023-05-03T12:44:36.717Z,1030.49
2023-05-03T12:45:41.655Z,1030.52
2023-05-03T12:46:46.040Z,1030.46
2023-05-03T12:47:50.296Z,1030.49
2023-05-03T12:48:54.656Z,1030.49
2023-05-03T12:49:59.987Z,1030.40
2023-05-03T12:51:18.479Z,1030.45
2023-05-03T12:53:09.421Z,1030.41
2023-05-03T12:54:11.534Z,1030.39
2023-05-03T12:56:24.161Z,1030.29
2023-05-03T12:57:24.861Z,1030.25
2023-05-03T13:00:37.886Z,1030.25
2023-05-03T13:04:05.036Z,1030.25
2023-05-03T13:04:58.709Z,1030.20
2023-05-03T13:05:59.547Z,1030.23
2023-05-03T13:07:07.470Z,1030.18
2023-05-03T13:08:09.806Z,1030.15
2023-05-03T13:09:19.254Z,1030.10
2023-05-03T13:11:20.802Z,1030.07
2023-05-03T13:12:25.267Z,1030.04